Terminal Aerodrome Forecast
Issued by NWS Duluth, MN

Home | Current Version | Previous Version | Text Only | Print | Product List | Glossary On
Versions: 1 2 3 4 5 6 7 8 9 10 11 12 13 14 15 16 17 18 19 20 21 22 23
219
FTUS43 KDLH 222340
TAFINL
TAF
KINL 222340Z 2300/2324 33016KT P6SM SCT030 BKN060
     FM230300 00000KT P6SM FEW110
     FM231000 36005KT P6SM BKN030
     FM231700 35004KT P6SM BKN080=

USA.gov is the U.S. government's official web portal to all federal, state and local government web resources and services.